createdAt,value
2016-12-19T00:00:58.568Z,1026.89
2016-12-19T00:02:07.268Z,1026.85
2016-12-19T00:03:16.260Z,1026.85
2016-12-19T00:04:25.405Z,1026.84
2016-12-19T00:05:34.442Z,1026.84
2016-12-19T00:06:43.774Z,1026.81
2016-12-19T00:07:53.108Z,1026.82
2016-12-19T00:09:02.105Z,1026.86
2016-12-19T00:10:11.251Z,1026.85
2016-12-19T00:11:20.553Z,1026.86
2016-12-19T00:12:29.857Z,1026.85
2016-12-19T00:13:38.845Z,1026.85
2016-12-19T00:14:47.840Z,1026.82
2016-12-19T00:15:56.988Z,1026.82
2016-12-19T00:17:05.988Z,1026.76
2016-12-19T00:18:14.986Z,1026.75
2016-12-19T00:19:23.668Z,1026.7
2016-12-19T00:20:32.963Z,1026.72
2016-12-19T00:21:41.650Z,1026.72
2016-12-19T00:22:50.988Z,1026.71
2016-12-19T00:24:00.284Z,1026.7
2016-12-19T00:25:08.963Z,1026.7
2016-12-19T00:26:17.957Z,1026.71
2016-12-19T00:27:27.616Z,1026.69
2016-12-19T00:28:36.332Z,1026.74
2016-12-19T00:29:45.049Z,1026.74
2016-12-19T00:30:53.734Z,1026.8
2016-12-19T00:32:02.720Z,1026.79
2016-12-19T00:33:11.434Z,1026.83
2016-12-19T00:34:20.421Z,1026.83
2016-12-19T00:35:29.409Z,1026.82
2016-12-19T00:36:38.092Z,1026.8
2016-12-19T00:37:47.083Z,1026.79
2016-12-19T00:38:56.185Z,1026.78
2016-12-19T00:40:05.181Z,1026.77
2016-12-19T00:41:14.794Z,1026.75
2016-12-19T00:42:24.398Z,1026.75
2016-12-19T00:43:34.018Z,1026.71
2016-12-19T00:44:43.473Z,1026.72
2016-12-19T00:45:52.463Z,1026.74
2016-12-19T00:47:02.379Z,1026.7
2016-12-19T00:48:11.685Z,1026.63
2016-12-19T00:49:20.690Z,1026.65
2016-12-19T00:50:30.312Z,1026.64
2016-12-19T00:51:38.999Z,1026.62
2016-12-19T00:52:47.985Z,1026.6
2016-12-19T00:53:56.999Z,1026.59
2016-12-19T00:55:06.617Z,1026.59
2016-12-19T00:56:15.608Z,1026.57
2016-12-19T00:57:24.316Z,1026.58
2016-12-19T00:58:33.322Z,1026.58
2016-12-19T00:59:42.627Z,1026.59
2016-12-19T01:00:51.626Z,1026.59
2016-12-19T01:02:00.724Z,1026.6
2016-12-19T01:03:10.026Z,1026.58
2016-12-19T01:04:19.331Z,1026.56
2016-12-19T01:05:28.627Z,1026.56
2016-12-19T01:06:37.653Z,1026.63
2016-12-19T01:07:46.332Z,1026.64
2016-12-19T01:08:55.013Z,1026.7
2016-12-19T01:10:04.327Z,1026.65
2016-12-19T01:11:13.325Z,1026.67
2016-12-19T01:12:22.007Z,1026.66
2016-12-19T01:13:31.002Z,1026.69
2016-12-19T01:14:40.308Z,1026.67
2016-12-19T01:15:49.308Z,1026.66
2016-12-19T01:16:58.610Z,1026.63
2016-12-19T01:18:07.914Z,1026.64
2016-12-19T01:19:16.604Z,1026.65
2016-12-19T01:20:25.927Z,1026.6
2016-12-19T01:21:34.949Z,1026.56
2016-12-19T01:22:43.947Z,1026.57
2016-12-19T01:23:52.639Z,1026.56
2016-12-19T01:25:02.246Z,1026.51
2016-12-19T01:26:11.548Z,1026.54
2016-12-19T01:27:20.244Z,1026.55
2016-12-19T01:28:28.937Z,1026.53
2016-12-19T01:29:37.634Z,1026.5
2016-12-19T01:30:46.929Z,1026.56
2016-12-19T01:31:55.917Z,1026.53
2016-12-19T01:33:05.216Z,1026.54
2016-12-19T01:34:14.215Z,1026.54
2016-12-19T01:35:23.211Z,1026.54
2016-12-19T01:36:32.353Z,1026.53
2016-12-19T01:37:41.063Z,1026.53
2016-12-19T01:38:50.361Z,1026.53
2016-12-19T01:39:59.348Z,1026.54
2016-12-19T01:41:08.350Z,1026.57
2016-12-19T01:42:17.652Z,1026.57
2016-12-19T01:43:27.274Z,1026.56
2016-12-19T01:44:35.991Z,1026.58
2016-12-19T01:45:44.980Z,1026.51
2016-12-19T01:46:54.004Z,1026.5
2016-12-19T01:48:02.686Z,1026.45
2016-12-19T01:49:11.681Z,1026.39
2016-12-19T01:50:20.679Z,1026.4
2016-12-19T01:51:29.674Z,1026.37
2016-12-19T01:52:38.963Z,1026.4
2016-12-19T01:53:48.619Z,1026.38
2016-12-19T01:54:57.940Z,1026.37
2016-12-19T01:56:06.945Z,1026.4
2016-12-19T01:57:15.634Z,1026.35
2016-12-19T01:58:24.315Z,1026.39
2016-12-19T01:59:33.989Z,1026.36
2016-12-19T02:00:43.304Z,1026.3
2016-12-19T02:01:52.303Z,1026.31
2016-12-19T02:03:00.988Z,1026.26
2016-12-19T02:04:10.004Z,1026.24
2016-12-19T02:05:18.706Z,1026.23
2016-12-19T02:06:27.726Z,1026.21
2016-12-19T02:07:36.425Z,1026.2
2016-12-19T02:08:46.033Z,1026.2
2016-12-19T02:09:54.753Z,1026.2
2016-12-19T02:11:03.743Z,1026.22
2016-12-19T02:12:12.437Z,1026.22
2016-12-19T02:13:21.111Z,1026.21
2016-12-19T02:14:30.416Z,1026.17
2016-12-19T02:15:39.715Z,1026.19
2016-12-19T02:16:48.573Z,1026.14
2016-12-19T02:17:57.258Z,1026.19
2016-12-19T02:19:05.947Z,1026.17
2016-12-19T02:20:14.632Z,1026.21
2016-12-19T02:21:23.634Z,1026.2
2016-12-19T02:22:33.290Z,1026.21
2016-12-19T02:23:41.978Z,1026.22
2016-12-19T02:24:50.958Z,1026.2
2016-12-19T02:26:00.259Z,1026.19
2016-12-19T02:27:08.946Z,1026.18
2016-12-19T02:28:18.551Z,1026.21
2016-12-19T02:29:27.851Z,1026.15
2016-12-19T02:30:36.538Z,1026.12
2016-12-19T02:31:45.534Z,1026.14
2016-12-19T02:32:54.533Z,1026.12
2016-12-19T02:34:03.530Z,1026.11
2016-12-19T02:35:12.212Z,1026.07
2016-12-19T02:36:20.950Z,1026.05
2016-12-19T02:37:29.943Z,1026.09
2016-12-19T02:38:38.945Z,1026.13
2016-12-19T02:39:47.622Z,1026.11
2016-12-19T02:40:56.626Z,1026.06
2016-12-19T02:42:05.338Z,1026.07
2016-12-19T02:43:14.633Z,1026.02
2016-12-19T02:44:23.936Z,1026.07
2016-12-19T02:45:32.629Z,1026.11
2016-12-19T02:46:41.632Z,1026.1
2016-12-19T02:47:50.947Z,1026.04
2016-12-19T02:48:59.947Z,1026
2016-12-19T02:50:09.250Z,1025.93
2016-12-19T02:51:18.653Z,1025.86
2016-12-19T02:52:27.355Z,1025.9
2016-12-19T02:53:36.056Z,1025.84
2016-12-19T02:54:45.052Z,1025.87
2016-12-19T02:55:54.040Z,1025.82
2016-12-19T02:57:02.727Z,1025.79
2016-12-19T02:58:12.030Z,1025.79
2016-12-19T02:59:21.321Z,1025.8
2016-12-19T03:00:30.305Z,1025.83
2016-12-19T03:01:39.307Z,1025.78
2016-12-19T03:02:48.326Z,1025.78
2016-12-19T03:03:57.034Z,1025.79
2016-12-19T03:05:06.332Z,1025.79
2016-12-19T03:06:15.017Z,1025.81
2016-12-19T03:07:23.704Z,1025.84
2016-12-19T03:08:32.551Z,1025.84
2016-12-19T03:09:41.232Z,1025.91
2016-12-19T03:10:50.230Z,1025.92
2016-12-19T03:11:58.905Z,1025.96
2016-12-19T03:13:07.593Z,1025.92
2016-12-19T03:14:16.733Z,1025.9
2016-12-19T03:15:25.721Z,1025.89
2016-12-19T03:16:35.021Z,1025.86
2016-12-19T03:17:43.712Z,1025.85
2016-12-19T03:18:52.396Z,1025.83
2016-12-19T03:20:01.390Z,1025.88
2016-12-19T03:21:10.084Z,1025.9
2016-12-19T03:22:19.376Z,1025.84
2016-12-19T03:23:28.081Z,1025.85
2016-12-19T03:24:36.775Z,1025.83
2016-12-19T03:25:46.170Z,1025.84
2016-12-19T03:26:55.163Z,1025.87
2016-12-19T03:28:04.158Z,1025.88
2016-12-19T03:29:13.160Z,1025.83
2016-12-19T03:30:21.849Z,1025.8
2016-12-19T03:31:30.998Z,1025.76
2016-12-19T03:32:40.001Z,1025.74
2016-12-19T03:33:48.683Z,1025.72
2016-12-19T03:34:57.693Z,1025.68
2016-12-19T03:36:06.687Z,1025.68
2016-12-19T03:37:15.991Z,1025.63
2016-12-19T03:38:25.600Z,1025.63
2016-12-19T03:39:34.321Z,1025.59
2016-12-19T03:40:43.930Z,1025.54
2016-12-19T03:41:52.914Z,1025.5
2016-12-19T03:43:01.596Z,1025.49
2016-12-19T03:44:10.590Z,1025.51
2016-12-19T03:45:19.894Z,1025.56
2016-12-19T03:46:28.895Z,1025.54
2016-12-19T03:47:37.644Z,1025.49
2016-12-19T03:48:47.372Z,1025.51
2016-12-19T03:49:56.997Z,1025.47
2016-12-19T03:51:05.993Z,1025.54
2016-12-19T03:52:14.985Z,1025.57
2016-12-19T03:53:24.639Z,1025.58
2016-12-19T03:54:33.430Z,1025.62
2016-12-19T03:55:42.426Z,1025.6
2016-12-19T03:56:51.114Z,1025.56
2016-12-19T03:58:00.442Z,1025.53
2016-12-19T03:59:10.062Z,1025.55
2016-12-19T04:00:19.537Z,1025.5
2016-12-19T04:01:28.229Z,1025.5
2016-12-19T04:02:37.851Z,1025.47
2016-12-19T04:03:46.548Z,1025.45
2016-12-19T04:04:55.548Z,1025.42
2016-12-19T04:06:04.854Z,1025.44
2016-12-19T04:07:13.844Z,1025.44
2016-12-19T04:08:23.158Z,1025.42
2016-12-19T04:09:32.158Z,1025.38
2016-12-19T04:10:41.459Z,1025.36
2016-12-19T04:11:50.758Z,1025.33
2016-12-19T04:13:00.055Z,1025.32
2016-12-19T04:14:09.051Z,1025.32
2016-12-19T04:15:18.374Z,1025.37
2016-12-19T04:16:27.674Z,1025.37
2016-12-19T04:17:37.603Z,1025.31
2016-12-19T04:18:46.920Z,1025.32
2016-12-19T04:19:55.607Z,1025.32
2016-12-19T04:21:04.295Z,1025.29
2016-12-19T04:22:13.288Z,1025.35
2016-12-19T04:23:22.189Z,1025.34
2016-12-19T04:24:31.183Z,1025.35
2016-12-19T04:25:40.196Z,1025.33
2016-12-19T04:26:49.190Z,1025.37
2016-12-19T04:27:58.496Z,1025.31
2016-12-19T04:29:07.353Z,1025.29
2016-12-19T04:30:16.958Z,1025.28
2016-12-19T04:31:25.636Z,1025.22
2016-12-19T04:32:34.324Z,1025.27
2016-12-19T04:33:43.001Z,1025.25
2016-12-19T04:34:52.085Z,1025.26
2016-12-19T04:36:00.779Z,1025.28
2016-12-19T04:37:10.089Z,1025.27
2016-12-19T04:38:19.078Z,1025.25
2016-12-19T04:39:28.101Z,1025.31
2016-12-19T04:40:37.099Z,1025.33
2016-12-19T04:41:45.783Z,1025.32
2016-12-19T04:42:54.472Z,1025.31
2016-12-19T04:44:03.467Z,1025.32
2016-12-19T04:45:12.456Z,1025.31
2016-12-19T04:46:21.792Z,1025.27
2016-12-19T04:47:30.509Z,1025.25
2016-12-19T04:48:39.200Z,1025.25
2016-12-19T04:49:48.224Z,1025.24
2016-12-19T04:50:57.545Z,1025.27
2016-12-19T04:52:06.233Z,1025.29
2016-12-19T04:53:15.847Z,1025.31
2016-12-19T04:54:24.846Z,1025.27
2016-12-19T04:55:33.843Z,1025.28
2016-12-19T04:56:43.150Z,1025.26
2016-12-19T04:57:52.314Z,1025.24
2016-12-19T04:59:01.303Z,1025.24
2016-12-19T05:00:10.918Z,1025.27
2016-12-19T05:01:20.529Z,1025.25
2016-12-19T05:02:29.527Z,1025.24
2016-12-19T05:03:38.217Z,1025.15
2016-12-19T05:04:47.223Z,1025.13
2016-12-19T05:05:56.525Z,1025.16
2016-12-19T05:07:05.578Z,1025.19
2016-12-19T05:08:14.880Z,1025.16
2016-12-19T05:09:23.717Z,1025.13
2016-12-19T05:10:33.009Z,1025.09
2016-12-19T05:11:41.699Z,1025.17
2016-12-19T05:12:50.692Z,1025.19
2016-12-19T05:13:59.378Z,1025.15
2016-12-19T05:15:08.688Z,1025.1
2016-12-19T05:16:17.399Z,1025.08
2016-12-19T05:17:26.421Z,1025.09
2016-12-19T05:18:35.453Z,1025.08
2016-12-19T05:19:44.753Z,1025.04
2016-12-19T05:20:53.753Z,1025.03
2016-12-19T05:22:02.774Z,1025.07
2016-12-19T05:23:11.770Z,1025.11
2016-12-19T05:24:20.765Z,1025.14
2016-12-19T05:25:29.454Z,1025.12
2016-12-19T05:26:38.440Z,1024.98
2016-12-19T05:27:47.739Z,1024.91
2016-12-19T05:28:57.048Z,1024.95
2016-12-19T05:30:06.660Z,1024.98
2016-12-19T05:31:16.268Z,1025.07
2016-12-19T05:32:25.267Z,1025.06
2016-12-19T05:33:34.258Z,1025.06
2016-12-19T05:34:43.251Z,1025.09
2016-12-19T05:35:51.941Z,1025.05
2016-12-19T05:37:00.637Z,1024.99
2016-12-19T05:38:09.985Z,1024.98
2016-12-19T05:39:19.313Z,1024.96
2016-12-19T05:40:27.997Z,1024.97
2016-12-19T05:41:36.986Z,1024.95
2016-12-19T05:42:45.991Z,1024.95
2016-12-19T05:43:54.786Z,1024.97
2016-12-19T05:45:03.785Z,1024.94
2016-12-19T05:46:12.473Z,1024.92
2016-12-19T05:47:21.166Z,1024.87
2016-12-19T05:48:30.166Z,1024.85
2016-12-19T05:49:39.467Z,1024.88
2016-12-19T05:50:48.771Z,1024.92
2016-12-19T05:51:57.769Z,1024.87
2016-12-19T05:53:06.766Z,1024.87
2016-12-19T05:54:15.786Z,1024.84
2016-12-19T05:55:24.619Z,1024.77
2016-12-19T05:56:33.915Z,1024.76
2016-12-19T05:57:42.910Z,1024.73
2016-12-19T05:58:52.205Z,1024.75
2016-12-19T06:00:01.219Z,1024.73
2016-12-19T06:01:10.363Z,1024.7
2016-12-19T06:02:19.666Z,1024.63
2016-12-19T06:03:28.661Z,1024.59
2016-12-19T06:04:37.719Z,1024.58
2016-12-19T06:05:46.720Z,1024.54
2016-12-19T06:06:56.024Z,1024.55
2016-12-19T06:08:05.339Z,1024.57
2016-12-19T06:09:14.356Z,1024.62
2016-12-19T06:10:23.963Z,1024.59
2016-12-19T06:11:33.282Z,1024.62
2016-12-19T06:12:42.630Z,1024.61
2016-12-19T06:13:51.952Z,1024.62
2016-12-19T06:15:00.940Z,1024.65
2016-12-19T06:16:09.657Z,1024.66
2016-12-19T06:17:18.680Z,1024.67
2016-12-19T06:18:27.530Z,1024.67
2016-12-19T06:19:36.854Z,1024.64
2016-12-19T06:20:45.876Z,1024.62
2016-12-19T06:21:55.249Z,1024.62
2016-12-19T06:23:03.961Z,1024.67
2016-12-19T06:24:13.588Z,1024.69
2016-12-19T06:25:22.609Z,1024.75
2016-12-19T06:26:31.301Z,1024.75
2016-12-19T06:27:40.627Z,1024.81
2016-12-19T06:28:49.332Z,1024.81
2016-12-19T06:29:58.394Z,1024.75
2016-12-19T06:31:07.412Z,1024.72
2016-12-19T06:32:16.409Z,1024.71
2016-12-19T06:33:25.457Z,1024.71
2016-12-19T06:34:34.154Z,1024.66
2016-12-19T06:35:43.157Z,1024.67
2016-12-19T06:36:52.461Z,1024.58
2016-12-19T06:38:01.152Z,1024.57
2016-12-19T06:39:09.841Z,1024.56
2016-12-19T06:40:19.454Z,1024.52
2016-12-19T06:41:28.455Z,1024.53
2016-12-19T06:42:37.172Z,1024.51
2016-12-19T06:43:45.875Z,1024.52
2016-12-19T06:44:54.887Z,1024.53
2016-12-19T06:46:04.520Z,1024.57
2016-12-19T06:47:13.829Z,1024.55
2016-12-19T06:48:22.845Z,1024.52
2016-12-19T06:49:31.539Z,1024.49
2016-12-19T06:50:40.243Z,1024.46
2016-12-19T06:51:48.978Z,1024.47
2016-12-19T06:52:57.715Z,1024.5
2016-12-19T06:54:06.758Z,1024.46
2016-12-19T06:55:15.765Z,1024.38
2016-12-19T06:56:25.072Z,1024.42
2016-12-19T06:57:34.066Z,1024.45
2016-12-19T06:58:43.520Z,1024.47
2016-12-19T06:59:52.586Z,1024.41
2016-12-19T07:01:01.301Z,1024.46
2016-12-19T07:02:10.306Z,1024.46
2016-12-19T07:03:18.996Z,1024.51
2016-12-19T07:04:28.006Z,1024.54
2016-12-19T07:05:36.740Z,1024.54
2016-12-19T07:06:46.082Z,1024.52
2016-12-19T07:07:54.767Z,1024.56
2016-12-19T07:09:03.766Z,1024.51
2016-12-19T07:10:12.760Z,1024.49
2016-12-19T07:11:21.444Z,1024.52
2016-12-19T07:12:30.444Z,1024.53
2016-12-19T07:13:39.135Z,1024.52
2016-12-19T07:14:47.838Z,1024.47
2016-12-19T07:15:57.491Z,1024.49
2016-12-19T07:17:06.495Z,1024.51
2016-12-19T07:18:15.495Z,1024.48
2016-12-19T07:19:24.197Z,1024.49
2016-12-19T07:20:33.797Z,1024.48
2016-12-19T07:21:42.590Z,1024.51
2016-12-19T07:22:51.601Z,1024.55
2016-12-19T07:24:00.291Z,1024.58
2016-12-19T07:25:09.594Z,1024.54
2016-12-19T07:26:18.376Z,1024.54
2016-12-19T07:27:29.017Z,1024.58
2016-12-19T07:28:38.320Z,1024.47
2016-12-19T07:29:47.014Z,1024.48
2016-12-19T07:30:56.020Z,1024.48
2016-12-19T07:32:05.318Z,1024.47
2016-12-19T07:33:14.469Z,1024.45
2016-12-19T07:34:23.476Z,1024.49
2016-12-19T07:35:32.785Z,1024.53
2016-12-19T07:36:41.790Z,1024.53
2016-12-19T07:37:50.793Z,1024.52
2016-12-19T07:38:59.797Z,1024.49
2016-12-19T07:40:08.796Z,1024.5
2016-12-19T07:41:17.489Z,1024.52
2016-12-19T07:42:26.206Z,1024.58
2016-12-19T07:43:35.211Z,1024.59
2016-12-19T07:44:43.901Z,1024.56
2016-12-19T07:45:52.594Z,1024.56
2016-12-19T07:47:01.587Z,1024.55
2016-12-19T07:48:10.280Z,1024.52
2016-12-19T07:49:19.583Z,1024.57
2016-12-19T07:50:29.938Z,1024.57
2016-12-19T07:51:38.934Z,1024.5
2016-12-19T07:52:47.935Z,1024.57
2016-12-19T07:53:56.933Z,1024.51
2016-12-19T07:55:05.934Z,1024.53
2016-12-19T07:56:15.354Z,1024.53
2016-12-19T07:57:24.691Z,1024.52
2016-12-19T07:58:33.706Z,1024.49
2016-12-19T07:59:43.019Z,1024.52
2016-12-19T08:00:52.026Z,1024.45
2016-12-19T08:02:01.336Z,1024.39
2016-12-19T08:03:10.034Z,1024.41
2016-12-19T08:04:19.032Z,1024.37
2016-12-19T08:05:28.358Z,1024.33
2016-12-19T08:06:37.682Z,1024.4
2016-12-19T08:07:46.683Z,1024.34
2016-12-19T08:08:55.382Z,1024.34
2016-12-19T08:10:04.087Z,1024.33
2016-12-19T08:11:13.109Z,1024.27
2016-12-19T08:12:21.808Z,1024.26
2016-12-19T08:13:30.505Z,1024.32
2016-12-19T08:14:39.822Z,1024.33
2016-12-19T08:15:48.828Z,1024.34
2016-12-19T08:16:57.511Z,1024.36
2016-12-19T08:18:06.520Z,1024.37
2016-12-19T08:19:16.175Z,1024.38
2016-12-19T08:20:25.606Z,1024.36
2016-12-19T08:21:34.937Z,1024.44
2016-12-19T08:22:43.632Z,1024.37
2016-12-19T08:23:52.324Z,1024.41
2016-12-19T08:25:01.418Z,1024.43
2016-12-19T08:26:10.099Z,1024.45
2016-12-19T08:27:18.984Z,1024.41
2016-12-19T08:28:28.396Z,1024.47
2016-12-19T08:29:37.153Z,1024.42
2016-12-19T08:30:46.492Z,1024.43
2016-12-19T08:31:55.196Z,1024.4
2016-12-19T08:33:04.512Z,1024.44
2016-12-19T08:34:13.523Z,1024.45
2016-12-19T08:35:22.552Z,1024.47
2016-12-19T08:36:31.388Z,1024.45
2016-12-19T08:37:40.995Z,1024.48
2016-12-19T08:38:50.944Z,1024.48
2016-12-19T08:39:59.639Z,1024.49
2016-12-19T08:41:08.875Z,1024.53
2016-12-19T08:42:18.332Z,1024.51
2016-12-19T08:43:27.646Z,1024.53
2016-12-19T08:44:37.259Z,1024.49
2016-12-19T08:45:46.599Z,1024.47
2016-12-19T08:46:55.590Z,1024.51
2016-12-19T08:48:04.747Z,1024.52
2016-12-19T08:49:14.053Z,1024.48
2016-12-19T08:50:23.045Z,1024.46
2016-12-19T08:51:32.351Z,1024.47
2016-12-19T08:52:41.663Z,1024.5
2016-12-19T08:53:50.821Z,1024.5
2016-12-19T08:54:59.527Z,1024.51
2016-12-19T08:56:08.533Z,1024.53
2016-12-19T08:57:17.869Z,1024.57
2016-12-19T08:58:27.173Z,1024.54
2016-12-19T08:59:36.369Z,1024.56
2016-12-19T09:00:45.359Z,1024.56
2016-12-19T09:01:54.050Z,1024.53
2016-12-19T09:03:03.354Z,1024.53
2016-12-19T09:04:12.663Z,1024.54
2016-12-19T09:05:22.633Z,1024.55
2016-12-19T09:06:31.636Z,1024.54
2016-12-19T09:07:40.343Z,1024.6
2016-12-19T09:08:49.046Z,1024.58
2016-12-19T09:09:58.353Z,1024.56
2016-12-19T09:11:07.659Z,1024.58
2016-12-19T09:12:16.413Z,1024.58
2016-12-19T09:13:44.619Z,1024.57
2016-12-19T09:14:53.917Z,1024.55
2016-12-19T09:16:03.535Z,1024.54
2016-12-19T09:17:12.539Z,1024.53
2016-12-19T09:18:21.245Z,1024.51
2016-12-19T09:19:30.865Z,1024.51
2016-12-19T09:20:39.858Z,1024.49
2016-12-19T09:21:49.154Z,1024.51
2016-12-19T09:22:58.457Z,1024.5
2016-12-19T09:24:07.463Z,1024.46
2016-12-19T09:25:16.208Z,1024.43
2016-12-19T09:26:25.198Z,1024.52
2016-12-19T09:27:33.901Z,1024.48
2016-12-19T09:28:42.901Z,1024.42
2016-12-19T09:29:51.930Z,1024.39
2016-12-19T09:31:00.624Z,1024.43
2016-12-19T09:32:09.630Z,1024.43
2016-12-19T09:33:18.639Z,1024.39
2016-12-19T09:34:27.639Z,1024.43
2016-12-19T09:35:36.621Z,1024.42
2016-12-19T09:36:45.306Z,1024.4
2016-12-19T09:37:54.291Z,1024.43
2016-12-19T09:39:03.283Z,1024.45
2016-12-19T09:40:12.895Z,1024.44
2016-12-19T09:41:21.883Z,1024.38
2016-12-19T09:42:30.909Z,1024.43
2016-12-19T09:43:40.215Z,1024.43
2016-12-19T09:44:49.223Z,1024.44
2016-12-19T09:45:57.913Z,1024.39
2016-12-19T09:47:06.606Z,1024.37
2016-12-19T09:48:15.909Z,1024.36
2016-12-19T09:49:24.927Z,1024.46
2016-12-19T09:50:33.626Z,1024.46
2016-12-19T09:51:42.920Z,1024.45
2016-12-19T09:52:51.926Z,1024.42
2016-12-19T09:54:01.230Z,1024.42
2016-12-19T09:55:10.544Z,1024.41
2016-12-19T09:56:19.846Z,1024.39
2016-12-19T09:57:28.547Z,1024.37
2016-12-19T09:58:37.618Z,1024.39
2016-12-19T09:59:46.317Z,1024.39
2016-12-19T10:00:55.010Z,1024.36
2016-12-19T10:02:04.311Z,1024.38
2016-12-19T10:03:13.609Z,1024.39
2016-12-19T10:04:22.611Z,1024.39
2016-12-19T10:05:31.613Z,1024.4
2016-12-19T10:06:40.922Z,1024.35
2016-12-19T10:07:49.610Z,1024.32
2016-12-19T10:08:59.227Z,1024.33
2016-12-19T10:10:08.863Z,1024.31
2016-12-19T10:11:17.869Z,1024.36
2016-12-19T10:12:26.873Z,1024.33
2016-12-19T10:13:35.553Z,1024.33
2016-12-19T10:14:44.560Z,1024.32
2016-12-19T10:15:53.263Z,1024.33
2016-12-19T10:17:02.257Z,1024.32
2016-12-19T10:18:10.956Z,1024.28
2016-12-19T10:19:19.971Z,1024.26
2016-12-19T10:20:28.972Z,1024.26
2016-12-19T10:21:37.970Z,1024.24
2016-12-19T10:22:46.963Z,1024.24
2016-12-19T10:23:56.270Z,1024.25
2016-12-19T10:25:05.269Z,1024.24
2016-12-19T10:26:14.258Z,1024.24
2016-12-19T10:27:23.568Z,1024.18
2016-12-19T10:28:32.609Z,1024.19
2016-12-19T10:29:41.610Z,1024.14
2016-12-19T10:30:51.322Z,1024.16
2016-12-19T10:32:00.937Z,1024.12
2016-12-19T10:33:09.939Z,1024.13
2016-12-19T10:34:19.236Z,1024.12
2016-12-19T10:35:28.231Z,1024.14
2016-12-19T10:36:37.844Z,1024.07
2016-12-19T10:37:46.844Z,1024.15
2016-12-19T10:38:55.839Z,1024.14
2016-12-19T10:40:04.858Z,1024.11
2016-12-19T10:41:14.147Z,1024.05
2016-12-19T10:42:23.158Z,1024.03
2016-12-19T10:43:31.846Z,1024.01
2016-12-19T10:44:40.855Z,1023.98
2016-12-19T10:45:49.855Z,1024
2016-12-19T10:46:58.857Z,1023.95
2016-12-19T10:48:07.849Z,1023.97
2016-12-19T10:49:16.851Z,1023.99
2016-12-19T10:50:26.470Z,1023.94
2016-12-19T10:51:35.461Z,1023.94
2016-12-19T10:52:44.459Z,1023.91
2016-12-19T10:53:53.969Z,1023.91
2016-12-19T10:55:02.655Z,1023.85
2016-12-19T10:56:11.332Z,1023.87
2016-12-19T10:57:20.013Z,1023.9
2016-12-19T10:58:29.316Z,1023.92
2016-12-19T10:59:38.609Z,1023.86
2016-12-19T11:00:47.615Z,1023.86
2016-12-19T11:01:56.918Z,1023.76
2016-12-19T11:03:05.914Z,1023.77
2016-12-19T11:04:14.617Z,1023.81
2016-12-19T11:05:24.229Z,1023.77
2016-12-19T11:06:33.210Z,1023.73
2016-12-19T11:07:42.199Z,1023.73
2016-12-19T11:08:51.194Z,1023.71
2016-12-19T11:10:00.206Z,1023.67
2016-12-19T11:11:09.207Z,1023.64
2016-12-19T11:12:17.899Z,1023.62
2016-12-19T11:13:26.900Z,1023.63
2016-12-19T11:14:35.898Z,1023.63
2016-12-19T11:15:45.212Z,1023.6
2016-12-19T11:16:54.515Z,1023.58
2016-12-19T11:18:03.814Z,1023.52
2016-12-19T11:19:13.117Z,1023.49
2016-12-19T11:20:22.107Z,1023.51
2016-12-19T11:21:30.797Z,1023.52
2016-12-19T11:22:40.098Z,1023.5
2016-12-19T11:23:48.795Z,1023.49
2016-12-19T11:24:57.799Z,1023.47
2016-12-19T11:26:06.504Z,1023.45
2016-12-19T11:27:15.694Z,1023.47
2016-12-19T11:28:24.717Z,1023.43
2016-12-19T11:29:33.704Z,1023.43
2016-12-19T11:30:42.700Z,1023.43
2016-12-19T11:31:51.683Z,1023.42
2016-12-19T11:33:00.678Z,1023.37
2016-12-19T11:34:09.667Z,1023.39
2016-12-19T11:35:18.660Z,1023.37
2016-12-19T11:36:27.364Z,1023.35
2016-12-19T11:37:36.064Z,1023.38
2016-12-19T11:38:44.753Z,1023.36
2016-12-19T11:39:54.062Z,1023.35
2016-12-19T11:41:03.053Z,1023.34
2016-12-19T11:42:12.361Z,1023.32
2016-12-19T11:43:21.054Z,1023.35
2016-12-19T11:44:30.049Z,1023.34
2016-12-19T11:45:39.353Z,1023.33
2016-12-19T11:46:48.697Z,1023.34
2016-12-19T11:47:57.705Z,1023.38
2016-12-19T11:49:07.020Z,1023.36
2016-12-19T11:50:16.030Z,1023.35
2016-12-19T11:51:25.039Z,1023.39
2016-12-19T11:52:34.032Z,1023.37
2016-12-19T11:53:43.051Z,1023.32
2016-12-19T11:54:52.043Z,1023.32
2016-12-19T11:56:01.040Z,1023.28
2016-12-19T11:57:10.733Z,1023.23
2016-12-19T11:58:19.725Z,1023.26
2016-12-19T11:59:28.409Z,1023.23
2016-12-19T12:00:37.711Z,1023.26
2016-12-19T12:01:47.005Z,1023.28
2016-12-19T12:02:56.033Z,1023.28
2016-12-19T12:04:04.707Z,1023.24
2016-12-19T12:05:13.410Z,1023.24
2016-12-19T12:06:22.412Z,1023.27
2016-12-19T12:07:31.105Z,1023.25
2016-12-19T12:08:40.109Z,1023.26
2016-12-19T12:09:49.406Z,1023.23
2016-12-19T12:10:58.097Z,1023.17
2016-12-19T12:12:07.096Z,1023.18
2016-12-19T12:13:16.093Z,1023.18
2016-12-19T12:14:24.785Z,1023.19
2016-12-19T12:15:33.772Z,1023.19
2016-12-19T12:16:42.819Z,1023.18
2016-12-19T12:17:51.493Z,1023.17
2016-12-19T12:19:00.204Z,1023.18
2016-12-19T12:20:09.220Z,1023.19
2016-12-19T12:21:19.154Z,1023.14
2016-12-19T12:22:27.850Z,1023.12
2016-12-19T12:23:36.575Z,1023.12
2016-12-19T12:24:45.623Z,1023.13
2016-12-19T12:25:54.642Z,1023.11
2016-12-19T12:27:03.623Z,1023.07
2016-12-19T12:28:12.618Z,1023.09
2016-12-19T12:29:21.911Z,1023.06
2016-12-19T12:30:30.906Z,1023.06
2016-12-19T12:31:39.591Z,1023.07
2016-12-19T12:32:48.282Z,1023.05
2016-12-19T12:33:57.261Z,1023.03
2016-12-19T12:35:06.556Z,1023.03
2016-12-19T12:36:15.553Z,1023.04
2016-12-19T12:37:24.555Z,1023.03
2016-12-19T12:38:33.556Z,1023.03
2016-12-19T12:39:42.838Z,1022.99
2016-12-19T12:40:51.838Z,1022.96
2016-12-19T12:42:00.531Z,1022.97
2016-12-19T12:43:09.839Z,1022.92
2016-12-19T12:44:18.528Z,1022.86
2016-12-19T12:45:28.136Z,1022.86
2016-12-19T12:46:37.431Z,1022.84
2016-12-19T12:47:46.726Z,1022.78
2016-12-19T12:48:56.060Z,1022.77
2016-12-19T12:50:05.357Z,1022.78
2016-12-19T12:51:14.359Z,1022.7
2016-12-19T12:52:23.043Z,1022.64
2016-12-19T12:53:31.736Z,1022.63
2016-12-19T12:54:41.331Z,1022.68
2016-12-19T12:55:50.315Z,1022.63
2016-12-19T12:56:59.354Z,1022.63
2016-12-19T12:58:08.657Z,1022.57
2016-12-19T12:59:17.649Z,1022.52
2016-12-19T13:00:26.340Z,1022.49
2016-12-19T13:01:35.325Z,1022.52
2016-12-19T13:02:44.324Z,1022.5
2016-12-19T13:03:53.013Z,1022.49
2016-12-19T13:05:02.311Z,1022.49
2016-12-19T13:06:11.002Z,1022.47
2016-12-19T13:07:20.303Z,1022.5
2016-12-19T13:08:29.295Z,1022.49
2016-12-19T13:09:39.207Z,1022.48
2016-12-19T13:10:48.210Z,1022.49
2016-12-19T13:11:57.202Z,1022.51
2016-12-19T13:13:06.238Z,1022.52
2016-12-19T13:14:15.540Z,1022.54
2016-12-19T13:15:24.228Z,1022.56
2016-12-19T13:16:33.226Z,1022.58
2016-12-19T13:17:42.217Z,1022.58
2016-12-19T13:18:51.203Z,1022.55
2016-12-19T13:20:00.811Z,1022.51
2016-12-19T13:21:09.491Z,1022.46
2016-12-19T13:22:18.177Z,1022.42
2016-12-19T13:23:27.160Z,1022.4
2016-12-19T13:24:35.853Z,1022.41
2016-12-19T13:25:44.551Z,1022.37
2016-12-19T13:26:53.841Z,1022.37
2016-12-19T13:28:03.445Z,1022.34
2016-12-19T13:29:12.736Z,1022.32
2016-12-19T13:30:21.739Z,1022.38
2016-12-19T13:31:31.363Z,1022.45
2016-12-19T13:32:40.052Z,1022.4
2016-12-19T13:33:49.660Z,1022.43
2016-12-19T13:34:58.966Z,1022.35
2016-12-19T13:36:07.656Z,1022.38
2016-12-19T13:37:16.653Z,1022.36
2016-12-19T13:38:25.954Z,1022.35
2016-12-19T13:39:34.945Z,1022.38
2016-12-19T13:40:44.243Z,1022.34
2016-12-19T13:41:52.924Z,1022.31
2016-12-19T13:43:01.632Z,1022.28
2016-12-19T13:44:10.625Z,1022.26
2016-12-19T13:45:19.314Z,1022.25
2016-12-19T13:46:29.843Z,1022.18
2016-12-19T13:47:39.215Z,1022.23
2016-12-19T13:48:48.208Z,1022.2
2016-12-19T13:49:56.953Z,1022.23
2016-12-19T13:51:06.256Z,1022.22
2016-12-19T13:52:15.247Z,1022.24
2016-12-19T13:53:23.932Z,1022.21
2016-12-19T13:54:32.920Z,1022.2
2016-12-19T13:55:41.618Z,1022.16
2016-12-19T13:56:50.617Z,1022.17
2016-12-19T13:57:59.912Z,1022.09